createdAt,value
2022-10-09T00:01:06.439Z,8.47
2022-10-09T00:03:34.538Z,6.77
2022-10-09T00:06:02.063Z,7.50
2022-10-09T00:08:29.316Z,8.40
2022-10-09T00:10:56.280Z,6.60
2022-10-09T00:13:23.600Z,5.90
2022-10-09T00:18:18.851Z,5.73
2022-10-09T00:20:47.059Z,10.33
2022-10-09T00:23:16.610Z,7.33
2022-10-09T00:25:55.435Z,9.93
2022-10-09T00:28:23.784Z,6.67
2022-10-09T00:30:51.104Z,7.63
2022-10-09T00:33:18.810Z,8.07
2022-10-09T00:35:46.601Z,6.53
2022-10-09T00:38:13.965Z,9.10
2022-10-09T00:40:41.244Z,6.13
2022-10-09T00:43:17.561Z,6.03
2022-10-09T00:45:50.511Z,13.60
2022-10-09T00:48:18.840Z,6.27
2022-10-09T00:50:55.217Z,8.17
2022-10-09T00:53:25.366Z,8.10
2022-10-09T00:55:52.586Z,7.07
2022-10-09T00:58:20.191Z,9.30
2022-10-09T01:00:47.534Z,7.50
2022-10-09T01:03:14.507Z,7.07
2022-10-09T01:06:00.755Z,8.23
2022-10-09T01:08:45.520Z,10.43
2022-10-09T01:11:34.149Z,9.83
2022-10-09T01:14:07.445Z,8.67
2022-10-09T01:16:43.688Z,7.70
2022-10-09T01:19:27.671Z,9.90
2022-10-09T01:22:36.190Z,11.10
2022-10-09T01:25:09.281Z,8.33
2022-10-09T01:27:37.853Z,9.00
2022-10-09T01:30:12.522Z,10.03
2022-10-09T01:32:43.974Z,6.90
2022-10-09T01:35:12.727Z,8.13
2022-10-09T01:37:42.932Z,15.30
2022-10-09T01:40:13.156Z,8.93
2022-10-09T01:42:40.959Z,9.77
2022-10-09T01:45:08.261Z,8.70
2022-10-09T01:47:35.264Z,8.80
2022-10-09T01:50:16.365Z,7.67
2022-10-09T01:52:43.218Z,7.90
2022-10-09T01:55:19.038Z,8.63
2022-10-09T01:57:49.394Z,10.10
2022-10-09T02:00:17.052Z,9.03
2022-10-09T02:02:45.734Z,9.53
2022-10-09T02:05:17.690Z,12.37
2022-10-09T02:07:45.117Z,7.63
2022-10-09T02:10:13.060Z,9.10
2022-10-09T02:12:49.563Z,9.23
2022-10-09T02:15:16.850Z,9.67
2022-10-09T02:17:47.748Z,8.80
2022-10-09T02:20:22.375Z,7.17
2022-10-09T02:22:49.572Z,9.53
2022-10-09T02:25:18.474Z,10.60
2022-10-09T02:27:46.598Z,16.23
2022-10-09T02:30:15.305Z,7.87
2022-10-09T02:32:42.244Z,9.07
2022-10-09T02:35:09.417Z,8.37
2022-10-09T02:37:36.417Z,9.80
2022-10-09T02:40:08.260Z,9.67
2022-10-09T02:42:38.002Z,8.37
2022-10-09T02:45:05.387Z,8.13
2022-10-09T02:47:32.411Z,7.97
2022-10-09T02:49:59.261Z,11.97
2022-10-09T02:52:26.106Z,10.53
2022-10-09T02:54:52.947Z,10.87
2022-10-09T02:57:19.805Z,11.67
2022-10-09T02:59:46.701Z,15.40
2022-10-09T03:02:13.817Z,10.13
2022-10-09T03:04:40.765Z,11.50
2022-10-09T03:07:07.627Z,12.90
2022-10-09T03:09:34.480Z,9.47
2022-10-09T03:12:01.302Z,9.77
2022-10-09T03:14:28.231Z,10.10
2022-10-09T03:16:55.102Z,9.10
2022-10-09T03:19:21.957Z,8.93
2022-10-09T03:21:48.787Z,8.77
2022-10-09T03:24:15.633Z,8.67
2022-10-09T03:26:42.476Z,8.23
2022-10-09T03:29:09.302Z,7.50
2022-10-09T03:31:53.065Z,10.50
2022-10-09T03:34:20.780Z,6.73
2022-10-09T03:36:47.658Z,8.93
2022-10-09T03:39:14.590Z,7.07
2022-10-09T03:41:41.580Z,7.87
2022-10-09T03:44:08.466Z,7.63
2022-10-09T03:46:35.382Z,10.23
2022-10-09T03:49:02.300Z,8.73
2022-10-09T03:51:29.239Z,8.23
2022-10-09T03:53:56.127Z,8.50
2022-10-09T03:56:22.967Z,10.40
2022-10-09T03:58:49.960Z,9.00
2022-10-09T04:01:16.896Z,7.63
2022-10-09T04:03:43.835Z,9.73
2022-10-09T04:06:11.051Z,10.00
2022-10-09T04:08:37.911Z,10.63
2022-10-09T04:11:07.353Z,14.07
2022-10-09T04:13:34.196Z,10.90
2022-10-09T04:16:01.086Z,10.07
2022-10-09T04:18:28.140Z,10.17
2022-10-09T04:20:56.798Z,9.90
2022-10-09T04:23:26.334Z,10.00
2022-10-09T04:25:54.956Z,7.43
2022-10-09T04:28:23.532Z,10.10
2022-10-09T04:30:52.416Z,7.07
2022-10-09T04:33:19.721Z,9.57
2022-10-09T04:35:50.799Z,8.13
2022-10-09T04:38:18.237Z,7.83
2022-10-09T04:40:46.061Z,8.00
2022-10-09T04:43:12.992Z,8.37
2022-10-09T04:45:40.706Z,6.07
2022-10-09T04:48:07.605Z,7.33
2022-10-09T04:50:34.539Z,8.50
2022-10-09T04:53:01.449Z,7.40
2022-10-09T04:55:28.340Z,6.50
2022-10-09T04:57:55.243Z,5.57
2022-10-09T05:00:22.409Z,6.23
2022-10-09T05:02:50.051Z,5.93
2022-10-09T05:05:17.215Z,7.70
2022-10-09T05:07:44.059Z,9.53
2022-10-09T05:10:10.968Z,8.33
2022-10-09T05:12:37.831Z,8.57
2022-10-09T05:15:05.232Z,7.83
2022-10-09T05:17:32.160Z,6.97
2022-10-09T05:19:59.072Z,7.23
2022-10-09T05:22:26.261Z,8.97
2022-10-09T05:24:53.132Z,7.83
2022-10-09T05:27:20.027Z,6.50
2022-10-09T05:29:46.884Z,8.03
2022-10-09T05:32:14.754Z,9.53
2022-10-09T05:34:41.673Z,7.13
2022-10-09T05:37:08.617Z,6.40
2022-10-09T05:39:39.413Z,6.57
2022-10-09T05:42:06.406Z,6.80
2022-10-09T05:44:33.499Z,8.03
2022-10-09T05:47:00.508Z,6.77
2022-10-09T05:49:27.561Z,10.73
2022-10-09T05:51:55.953Z,7.40
2022-10-09T05:54:22.836Z,9.17
2022-10-09T05:56:49.731Z,11.00
2022-10-09T06:02:04.166Z,13.60
2022-10-09T06:04:31.385Z,12.47
2022-10-09T06:06:59.036Z,13.63
2022-10-09T06:09:29.807Z,8.73
2022-10-09T06:11:56.970Z,10.83
2022-10-09T06:14:25.121Z,9.83
2022-10-09T06:16:55.655Z,8.97
2022-10-09T06:19:24.066Z,10.77
2022-10-09T06:21:51.890Z,10.10
2022-10-09T06:24:28.657Z,9.43
2022-10-09T06:26:56.822Z,10.20
2022-10-09T06:29:23.809Z,10.33
2022-10-09T06:31:50.672Z,9.40
2022-10-09T06:34:17.849Z,5.37
2022-10-09T06:36:45.175Z,6.63
2022-10-09T06:39:12.293Z,9.83
2022-10-09T06:41:39.993Z,11.23
2022-10-09T06:44:25.163Z,5.23
2022-10-09T06:46:52.396Z,5.80
2022-10-09T06:49:25.229Z,6.80
2022-10-09T06:51:52.468Z,11.20
2022-10-09T06:54:19.354Z,7.00
2022-10-09T06:56:47.338Z,6.20
2022-10-09T06:59:17.548Z,7.27
2022-10-09T07:01:44.587Z,6.60
2022-10-09T07:04:13.615Z,7.60
2022-10-09T07:06:46.764Z,7.33
2022-10-09T07:09:16.464Z,6.93
2022-10-09T07:11:46.717Z,7.93
2022-10-09T07:14:18.726Z,7.63
2022-10-09T07:16:48.429Z,8.50
2022-10-09T07:19:17.741Z,7.17
2022-10-09T07:21:47.113Z,8.47
2022-10-09T07:24:15.027Z,9.23
2022-10-09T07:26:44.994Z,9.00
2022-10-09T07:29:14.630Z,6.90
2022-10-09T07:31:41.645Z,7.93
2022-10-09T07:34:10.450Z,6.77
2022-10-09T07:36:38.021Z,11.13
2022-10-09T07:39:08.175Z,6.23
2022-10-09T07:41:35.633Z,7.97
2022-10-09T07:44:03.875Z,11.23
2022-10-09T07:46:33.945Z,6.50
2022-10-09T07:49:03.489Z,6.53
2022-10-09T07:51:31.246Z,8.03
2022-10-09T07:54:01.388Z,9.67
2022-10-09T07:56:31.360Z,13.10
2022-10-09T07:59:00.836Z,11.27
2022-10-09T08:01:31.780Z,11.50
2022-10-09T08:04:00.267Z,12.83
2022-10-09T08:06:29.473Z,9.13
2022-10-09T08:08:58.577Z,10.50
2022-10-09T08:11:26.801Z,9.10
2022-10-09T08:13:54.296Z,19.63
2022-10-09T08:16:24.337Z,11.13
2022-10-09T08:18:55.779Z,10.57
2022-10-09T08:21:22.891Z,11.73
2022-10-09T08:23:53.477Z,5.83
2022-10-09T08:26:21.904Z,10.00
2022-10-09T08:28:57.975Z,7.77
2022-10-09T08:31:25.702Z,9.53
2022-10-09T08:33:57.661Z,5.73
2022-10-09T08:36:25.638Z,6.83
2022-10-09T08:38:52.891Z,6.53
2022-10-09T08:41:26.698Z,5.73
2022-10-09T08:44:05.024Z,5.53
2022-10-09T08:46:53.594Z,5.40
2022-10-09T08:49:45.096Z,6.60
2022-10-09T08:52:29.976Z,7.70
2022-10-09T08:55:02.118Z,7.87
2022-10-09T08:57:34.404Z,8.57
2022-10-09T09:00:01.352Z,9.17
2022-10-09T09:02:37.944Z,8.87
2022-10-09T09:05:23.104Z,7.87
2022-10-09T09:07:52.802Z,38.77
2022-10-09T09:10:35.047Z,219.63
2022-10-09T09:13:09.883Z,83.90
2022-10-09T09:16:00.789Z,23.33
2022-10-09T09:18:49.609Z,1661.13
2022-10-09T09:21:47.482Z,564.90
2022-10-09T09:24:19.025Z,1542.17
2022-10-09T09:26:50.730Z,1999.90
2022-10-09T09:29:23.270Z,912.53
2022-10-09T09:31:58.730Z,1574.40
2022-10-09T09:34:37.763Z,771.53
2022-10-09T09:37:05.073Z,898.63
2022-10-09T09:40:30.970Z,194.67
2022-10-09T09:42:21.833Z,696.73
2022-10-09T09:45:13.759Z,1243.13
2022-10-09T09:47:45.687Z,421.47
2022-10-09T09:50:34.915Z,555.20
2022-10-09T09:53:05.137Z,1873.47
2022-10-09T09:55:33.881Z,1731.20
2022-10-09T09:58:14.783Z,396.70
2022-10-09T10:00:41.726Z,492.03
2022-10-09T10:03:14.249Z,770.87
2022-10-09T10:05:43.271Z,1026.27
2022-10-09T10:08:14.301Z,644.33
2022-10-09T10:10:46.407Z,36.87
2022-10-09T10:13:23.901Z,10.60
2022-10-09T10:15:54.778Z,9.53
2022-10-09T10:18:24.526Z,24.73
2022-10-09T10:20:57.037Z,9.90
2022-10-09T10:23:40.897Z,20.33
2022-10-09T10:26:41.919Z,15.17
2022-10-09T10:29:17.629Z,4.83
2022-10-09T10:32:17.459Z,6.60
2022-10-09T10:35:01.277Z,4.27
2022-10-09T10:37:45.764Z,4.70
2022-10-09T10:40:20.051Z,6.27
2022-10-09T10:42:59.431Z,4.70
2022-10-09T10:45:33.693Z,4.37
2022-10-09T10:48:05.800Z,3.33
2022-10-09T10:50:41.485Z,5.10
2022-10-09T10:53:11.548Z,3.77
2022-10-09T10:56:14.582Z,5.53
2022-10-09T10:58:59.264Z,5.27
2022-10-09T11:01:52.294Z,6.40
2022-10-09T11:04:29.364Z,4.37
2022-10-09T11:07:25.560Z,5.00
2022-10-09T11:09:58.675Z,4.23
2022-10-09T11:12:48.786Z,4.77
2022-10-09T11:15:31.541Z,4.00
2022-10-09T11:18:32.475Z,3.30
2022-10-09T11:21:10.031Z,5.90
2022-10-09T11:23:53.870Z,4.83
2022-10-09T11:26:31.494Z,5.70
2022-10-09T11:29:06.762Z,3.37
2022-10-09T11:31:49.149Z,3.67
2022-10-09T11:34:23.155Z,3.40
2022-10-09T11:36:50.039Z,3.10
2022-10-09T11:39:25.896Z,4.90
2022-10-09T11:41:54.890Z,2.70
2022-10-09T11:45:00.259Z,3.97
2022-10-09T11:47:27.790Z,4.53
2022-10-09T11:50:06.920Z,5.87
2022-10-09T11:53:11.978Z,5.83
2022-10-09T11:55:38.933Z,5.37
2022-10-09T11:58:23.646Z,2.90
2022-10-09T12:00:54.140Z,4.70
2022-10-09T12:03:33.334Z,7.27
2022-10-09T12:06:15.596Z,4.33
2022-10-09T12:08:55.463Z,4.77
2022-10-09T12:11:23.730Z,3.87
2022-10-09T12:14:23.897Z,3.73
2022-10-09T12:16:50.877Z,3.03
2022-10-09T12:19:31.339Z,3.13
2022-10-09T12:22:21.881Z,3.40
2022-10-09T12:24:51.476Z,2.70
2022-10-09T12:27:23.855Z,5.00
2022-10-09T12:29:55.347Z,2.90
2022-10-09T12:32:38.184Z,4.40
2022-10-09T12:35:20.388Z,2.63
2022-10-09T12:37:47.336Z,3.23
2022-10-09T12:40:22.930Z,3.83
2022-10-09T12:42:52.659Z,3.60
2022-10-09T12:45:24.449Z,4.70
2022-10-09T12:47:54.651Z,3.20
2022-10-09T12:50:26.499Z,2.70
2022-10-09T12:53:05.973Z,4.07
2022-10-09T12:55:42.498Z,3.47
2022-10-09T12:58:18.640Z,3.83
2022-10-09T13:00:54.938Z,5.17
2022-10-09T13:03:26.375Z,3.67
2022-10-09T13:05:53.546Z,3.50
2022-10-09T13:08:25.757Z,3.13
2022-10-09T13:10:54.006Z,2.73
2022-10-09T13:13:27.215Z,2.67
2022-10-09T13:16:11.883Z,3.00
2022-10-09T13:18:38.814Z,5.87
2022-10-09T13:21:29.036Z,4.47
2022-10-09T13:24:14.013Z,2.90
2022-10-09T13:26:43.407Z,2.80
2022-10-09T13:29:13.226Z,4.07
2022-10-09T13:31:43.196Z,3.97
2022-10-09T13:34:12.920Z,2.93
2022-10-09T13:36:40.475Z,4.80
2022-10-09T13:39:10.655Z,7.93
2022-10-09T13:41:37.548Z,5.40
2022-10-09T13:44:04.404Z,3.70
2022-10-09T13:46:31.309Z,4.33
2022-10-09T13:48:58.242Z,4.40
2022-10-09T13:51:25.247Z,4.83
2022-10-09T13:53:52.275Z,3.70
2022-10-09T13:56:19.742Z,4.50
2022-10-09T13:58:46.661Z,4.93
2022-10-09T14:01:13.829Z,4.77
2022-10-09T14:03:40.833Z,3.47
2022-10-09T14:06:07.828Z,3.37
2022-10-09T14:08:34.712Z,3.47
2022-10-09T14:11:01.931Z,4.87
2022-10-09T14:13:29.621Z,4.13
2022-10-09T14:15:56.715Z,5.80
2022-10-09T14:18:23.773Z,6.23
2022-10-09T14:20:50.900Z,3.87
2022-10-09T14:23:17.826Z,6.93
2022-10-09T14:25:44.773Z,3.87
2022-10-09T14:28:11.646Z,6.43
2022-10-09T14:30:45.122Z,3.43
2022-10-09T14:33:12.898Z,4.47
2022-10-09T14:35:39.840Z,3.57
2022-10-09T14:38:06.721Z,3.53
2022-10-09T14:40:33.709Z,3.33
2022-10-09T14:43:00.585Z,10.43
2022-10-09T14:45:29.272Z,7.37
2022-10-09T14:47:57.052Z,8.47
2022-10-09T14:50:24.379Z,3.97
2022-10-09T14:52:51.437Z,3.77
2022-10-09T14:55:18.626Z,5.17
2022-10-09T14:57:45.643Z,3.73
2022-10-09T15:00:13.414Z,4.00
2022-10-09T15:05:10.799Z,3.60
2022-10-09T15:07:38.028Z,4.57
2022-10-09T15:10:05.274Z,3.57
2022-10-09T15:12:32.123Z,6.27
2022-10-09T15:14:59.128Z,6.40
2022-10-09T15:17:25.980Z,5.73
2022-10-09T15:19:54.069Z,3.57
2022-10-09T15:22:20.956Z,6.80
2022-10-09T15:24:47.999Z,3.83
2022-10-09T15:27:14.928Z,3.53
2022-10-09T15:29:41.811Z,6.80
2022-10-09T15:32:09.953Z,3.33
2022-10-09T15:34:41.231Z,4.83
2022-10-09T15:37:08.386Z,4.33
2022-10-09T15:39:35.489Z,5.80
2022-10-09T15:42:04.611Z,6.93
2022-10-09T15:44:31.556Z,5.77
2022-10-09T15:46:58.488Z,7.63
2022-10-09T15:49:25.956Z,4.93
2022-10-09T15:51:52.887Z,4.40
2022-10-09T15:54:19.835Z,8.60
2022-10-09T15:56:46.897Z,6.77
2022-10-09T15:59:16.808Z,6.27
2022-10-09T16:01:43.967Z,6.63
2022-10-09T16:04:11.003Z,6.07
2022-10-09T16:06:38.066Z,12.43
2022-10-09T16:09:05.003Z,7.63
2022-10-09T16:11:32.100Z,12.93
2022-10-09T16:13:59.326Z,5.53
2022-10-09T16:16:27.750Z,9.67
2022-10-09T16:18:56.813Z,6.13
2022-10-09T16:21:26.672Z,4.50
2022-10-09T16:23:58.791Z,4.87
2022-10-09T16:26:29.594Z,3.63
2022-10-09T16:28:56.983Z,4.80
2022-10-09T16:31:27.117Z,6.83
2022-10-09T16:33:54.283Z,5.57
2022-10-09T16:36:23.790Z,3.60
2022-10-09T16:38:50.667Z,6.43
2022-10-09T16:41:20.106Z,8.70
2022-10-09T16:43:49.374Z,5.77
2022-10-09T16:46:32.157Z,4.37
2022-10-09T16:49:03.504Z,7.03
2022-10-09T16:51:34.521Z,6.57
2022-10-09T16:54:03.808Z,3.90
2022-10-09T16:56:36.520Z,6.57
2022-10-09T16:59:06.769Z,5.50
2022-10-09T17:01:37.740Z,6.40
2022-10-09T17:04:04.998Z,3.90
2022-10-09T17:06:32.100Z,4.77
2022-10-09T17:08:59.762Z,6.70
2022-10-09T17:11:29.665Z,5.57
2022-10-09T17:13:57.483Z,4.13
2022-10-09T17:16:31.522Z,6.10
2022-10-09T17:18:58.521Z,6.13
2022-10-09T17:21:29.332Z,6.13
2022-10-09T17:24:01.984Z,5.97
2022-10-09T17:26:29.550Z,5.70
2022-10-09T17:42:32.712Z,7.73
2022-10-09T17:45:00.791Z,6.83
2022-10-09T17:47:32.490Z,5.80
2022-10-09T17:50:00.371Z,6.83
2022-10-09T17:52:27.670Z,7.53
2022-10-09T17:54:54.638Z,6.67
2022-10-09T17:57:28.597Z,5.87
2022-10-09T17:59:56.666Z,9.83
2022-10-09T18:02:25.597Z,6.47
2022-10-09T18:04:58.000Z,11.00
2022-10-09T18:07:27.863Z,6.43
2022-10-09T18:09:56.659Z,8.57
2022-10-09T18:12:23.623Z,7.97
2022-10-09T18:14:51.067Z,10.37
2022-10-09T18:17:22.236Z,7.40
2022-10-09T18:19:49.640Z,7.77
2022-10-09T18:22:16.657Z,6.00
2022-10-09T18:24:43.594Z,8.33
2022-10-09T18:27:10.523Z,8.47
2022-10-09T18:29:40.120Z,10.17
2022-10-09T18:32:15.236Z,8.17
2022-10-09T18:34:46.252Z,11.33
2022-10-09T18:37:13.666Z,9.30
2022-10-09T18:39:41.066Z,15.80
2022-10-09T18:42:08.284Z,12.80
2022-10-09T18:44:40.395Z,9.33
2022-10-09T18:47:13.412Z,16.17
2022-10-09T18:49:45.288Z,9.47
2022-10-09T18:52:17.404Z,17.13
2022-10-09T18:54:50.639Z,10.43
2022-10-09T18:57:22.514Z,14.77
2022-10-09T18:59:51.797Z,10.63
2022-10-09T19:02:20.145Z,12.40
2022-10-09T19:04:48.096Z,13.47
2022-10-09T19:07:17.035Z,10.77
2022-10-09T19:09:44.087Z,14.63
2022-10-09T19:12:11.145Z,13.63
2022-10-09T19:14:40.545Z,14.93
2022-10-09T19:17:07.990Z,37.03
2022-10-09T19:19:35.364Z,18.50
2022-10-09T19:22:02.861Z,15.30
2022-10-09T19:24:34.100Z,15.80
2022-10-09T19:27:01.899Z,20.33
2022-10-09T19:29:37.140Z,16.13
2022-10-09T19:32:04.175Z,17.63
2022-10-09T19:34:32.552Z,12.23
2022-10-09T19:36:59.666Z,12.03
2022-10-09T19:39:26.629Z,14.90
2022-10-09T19:41:54.129Z,15.40
2022-10-09T19:44:24.709Z,7.60
2022-10-09T19:46:52.566Z,10.17
2022-10-09T19:49:19.957Z,7.60
2022-10-09T19:51:46.927Z,7.90
2022-10-09T19:54:14.017Z,8.10
2022-10-09T19:56:43.311Z,6.67
2022-10-09T19:59:11.047Z,6.77
2022-10-09T20:01:40.536Z,6.73
2022-10-09T20:04:13.450Z,4.77
2022-10-09T20:06:42.934Z,5.43
2022-10-09T20:09:14.528Z,4.73
2022-10-09T20:11:47.137Z,6.00
2022-10-09T20:14:16.446Z,6.13
2022-10-09T20:16:46.230Z,6.37
2022-10-09T20:19:13.828Z,6.17
2022-10-09T20:21:40.760Z,7.17
2022-10-09T20:24:08.407Z,5.60
2022-10-09T20:26:37.726Z,6.50
2022-10-09T20:29:08.022Z,5.70
2022-10-09T20:31:34.997Z,8.10
2022-10-09T20:34:01.941Z,8.40
2022-10-09T20:36:35.362Z,8.40
2022-10-09T20:39:05.888Z,6.30
2022-10-09T20:41:34.071Z,6.10
2022-10-09T20:44:03.210Z,7.50
2022-10-09T20:46:32.250Z,7.80
2022-10-09T20:48:59.483Z,7.20
2022-10-09T20:51:26.633Z,9.83
2022-10-09T20:53:56.107Z,7.20
2022-10-09T20:56:24.974Z,7.70
2022-10-09T20:58:53.859Z,7.87
2022-10-09T21:01:21.202Z,7.40
2022-10-09T21:03:48.285Z,7.37
2022-10-09T21:06:18.333Z,6.70
2022-10-09T21:08:45.531Z,5.70
2022-10-09T21:11:16.359Z,6.83
2022-10-09T21:13:44.106Z,6.13
2022-10-09T21:16:14.541Z,7.53
2022-10-09T21:18:41.710Z,5.40
2022-10-09T21:21:13.727Z,7.53
2022-10-09T21:23:41.958Z,8.87
2022-10-09T21:26:17.168Z,6.93
2022-10-09T21:28:46.836Z,5.77
2022-10-09T21:31:18.208Z,6.80
2022-10-09T21:33:45.930Z,7.03
2022-10-09T21:36:56.159Z,7.37
2022-10-09T21:39:30.330Z,6.90
2022-10-09T21:41:57.214Z,6.60
2022-10-09T21:44:24.144Z,8.50
2022-10-09T21:46:51.055Z,8.07
2022-10-09T21:49:25.979Z,8.73
2022-10-09T21:51:53.737Z,8.80
2022-10-09T21:54:21.381Z,9.57
2022-10-09T21:56:48.682Z,7.97
2022-10-09T21:59:15.604Z,8.17
2022-10-09T22:01:42.479Z,8.13
2022-10-09T22:04:09.488Z,9.47
2022-10-09T22:06:36.365Z,10.20
2022-10-09T22:09:03.783Z,7.87
2022-10-09T22:11:30.759Z,9.00
2022-10-09T22:13:57.805Z,8.07
2022-10-09T22:16:24.648Z,9.17
2022-10-09T22:18:51.493Z,6.87
2022-10-09T22:21:19.041Z,8.97
2022-10-09T22:23:46.035Z,7.00
2022-10-09T22:26:17.049Z,7.33
2022-10-09T22:28:45.164Z,8.77
2022-10-09T22:31:21.052Z,10.20
2022-10-09T22:34:00.403Z,8.60
2022-10-09T22:36:30.596Z,8.63
2022-10-09T22:38:59.664Z,7.83
2022-10-09T22:41:28.779Z,10.10
2022-10-09T22:43:57.475Z,11.73
2022-10-09T22:46:29.592Z,8.80
2022-10-09T22:48:56.520Z,10.00
2022-10-09T22:51:25.138Z,9.80
2022-10-09T22:53:52.134Z,11.47
2022-10-09T22:56:22.511Z,10.17
2022-10-09T22:58:50.408Z,11.10
2022-10-09T23:01:20.843Z,9.87
2022-10-09T23:03:47.714Z,9.17
2022-10-09T23:06:17.098Z,10.50
2022-10-09T23:08:46.053Z,8.47
2022-10-09T23:11:14.117Z,9.30
2022-10-09T23:13:41.166Z,11.27
2022-10-09T23:16:10.519Z,10.97
2022-10-09T23:18:37.928Z,9.07
2022-10-09T23:21:06.881Z,9.37
2022-10-09T23:23:34.231Z,11.70
2022-10-09T23:26:09.385Z,11.27
2022-10-09T23:28:36.431Z,11.10
2022-10-09T23:31:08.575Z,10.13
2022-10-09T23:33:36.100Z,11.37
2022-10-09T23:36:03.989Z,10.03
2022-10-09T23:38:30.983Z,10.37
2022-10-09T23:41:06.355Z,11.37
2022-10-09T23:43:35.268Z,8.60
2022-10-09T23:46:04.628Z,9.80
2022-10-09T23:48:32.136Z,9.70
2022-10-09T23:50:59.457Z,9.27
2022-10-09T23:53:27.219Z,10.37
2022-10-09T23:55:54.803Z,8.37
2022-10-09T23:58:22.809Z,10.67
